Stone Cabin, Nevada Weather observations

Data are for observation ending at time listed.
 Day   Time    Ave.   Ave.  Ave.  Vector   Max.   Stn.    Total    Solar   Ave.  
  of    of     Air    Rel.  Wind   Wind    Wind   Baro.  Precip.   Rad.    Soil  
Year   Day     Temp.  Hum.  Speed  Dir.    Gust   Pres.                    Temp. 
2016   (PST)    F      %     mph   deg.    mph     mb.     in.     W/m2     F   
------------------------------------------------------------------------------
  37   17:00   34.8    66    1.3   108      2.4    825     0.00      63    31.9
  37   18:00   28.5    80    0.4   202      2.3    827     0.00       2    31.8
  37   19:00   24.4    87    0.5   291      2.4    829     0.00       0    31.7
  37   20:00   19.7    90    1.6   298      3.4    830     0.00       0    31.6
  37   21:00   18.3    91    1.7   306      3.3    832     0.00       0    31.6
  37   22:00   16.8    88    2.5   303      5.0    832     0.00       0    31.5
  37   23:00   16.2    86    2.6   301      4.2    833     0.00       0    31.5
  38    0:00   14.8    85    2.4   300      4.4    833     0.00       0    31.5
  38    1:00   14.2    84    2.5   310      4.3    833     0.00       0    31.5
  38    2:00   16.1    83    2.0   286      4.7    833     0.00       0    31.5
  38    3:00   14.7    82    2.1   306      4.4    833     0.00       0    31.6
  38    4:00   13.6    83    2.3   302      4.5    833     0.00       0    31.5
  38    5:00   13.0    83    2.5   299      4.6    834     0.00       0    31.5
  38    6:00   15.5    78    2.4   295      5.1    834     0.00       0    31.5
  38    7:00   13.4    80    2.3   291      5.0    834     0.00       2    31.5
  38    8:00   16.4    77    2.3   308      3.8    834     0.00      47    31.5
  38    9:00   26.3    62    1.3   315      3.2    834     0.00     199    31.5
  38   10:00   34.7    51    2.4   242      4.8    835     0.00     415    31.7
  38   11:00   41.0    38    2.0   239      4.7    834     0.00     594    31.8
  38   12:00   45.1    33    2.0   172      4.5    832     0.00     664    31.8
  38   13:00   45.4    36    2.1   126      4.8    828     0.00     664    31.9
  38   14:00   44.4    39    2.4   104      4.8    830     0.00     587    31.9
  38   15:00   44.0    40    1.9    90      3.7    827     0.00     460    31.9
  38   16:00   46.4    39    1.7   252      3.9    834     0.00     289    31.8

Return to Stone Cabin, Nevada graphs page.


Western Regional Climate Center,wrcc@dri.edu